createdAt,value
2022-10-02T00:00:36.609Z,10.70
2022-10-02T00:02:40.774Z,10.60
2022-10-02T00:04:44.619Z,9.90
2022-10-02T00:06:47.419Z,10.97
2022-10-02T00:08:51.166Z,10.63
2022-10-02T00:10:54.519Z,9.83
2022-10-02T00:12:58.035Z,10.40
2022-10-02T00:15:01.706Z,11.57
2022-10-02T00:17:04.285Z,9.80
2022-10-02T00:19:06.657Z,10.97
2022-10-02T00:21:09.910Z,10.93
2022-10-02T00:23:12.922Z,10.83
2022-10-02T00:25:18.832Z,9.63
2022-10-02T00:27:28.410Z,10.60
2022-10-02T00:29:33.454Z,11.87
2022-10-02T00:31:37.201Z,10.70
2022-10-02T00:33:42.865Z,9.97
2022-10-02T00:35:53.294Z,10.40
2022-10-02T00:37:56.748Z,9.93
2022-10-02T00:40:02.390Z,10.33
2022-10-02T00:42:11.745Z,11.00
2022-10-02T00:44:17.331Z,10.40
2022-10-02T00:46:24.673Z,10.23
2022-10-02T00:48:31.206Z,10.20
2022-10-02T00:50:35.564Z,10.63
2022-10-02T00:52:41.595Z,10.43
2022-10-02T00:54:48.968Z,10.07
2022-10-02T00:56:53.084Z,10.40
2022-10-02T00:58:59.676Z,10.57
2022-10-02T01:01:03.861Z,11.00
2022-10-02T01:03:09.961Z,10.80
2022-10-02T01:05:12.309Z,10.30
2022-10-02T01:07:14.691Z,9.83
2022-10-02T01:09:17.473Z,9.80
2022-10-02T01:11:20.061Z,11.37
2022-10-02T01:13:22.408Z,10.77
2022-10-02T01:15:28.788Z,10.83
2022-10-02T01:17:32.469Z,10.67
2022-10-02T01:19:36.994Z,10.30
2022-10-02T01:21:42.202Z,10.53
2022-10-02T01:23:47.188Z,10.50
2022-10-02T01:25:50.869Z,10.47
2022-10-02T01:27:53.459Z,10.37
2022-10-02T01:29:57.367Z,10.23
2022-10-02T01:32:00.189Z,9.30
2022-10-02T01:34:02.615Z,11.10
2022-10-02T01:36:05.063Z,10.40
2022-10-02T01:38:08.956Z,10.70
2022-10-02T01:40:12.439Z,9.40
2022-10-02T01:42:16.229Z,10.10
2022-10-02T01:44:18.620Z,9.90
2022-10-02T01:46:25.312Z,9.80
2022-10-02T01:48:31.968Z,10.40
2022-10-02T01:50:37.064Z,10.20
2022-10-02T01:52:42.580Z,9.90
2022-10-02T01:54:47.966Z,10.50
2022-10-02T01:56:54.087Z,10.70
2022-10-02T01:58:59.518Z,10.43
2022-10-02T02:01:02.905Z,10.90
2022-10-02T02:03:07.682Z,9.80
2022-10-02T02:05:10.766Z,10.33
2022-10-02T02:07:14.787Z,11.20
2022-10-02T02:09:17.984Z,11.27
2022-10-02T02:11:21.070Z,10.53
2022-10-02T02:13:24.353Z,11.47
2022-10-02T02:15:29.617Z,10.37
2022-10-02T02:17:32.569Z,10.40
2022-10-02T02:19:35.994Z,10.57
2022-10-02T02:21:38.954Z,10.80
2022-10-02T02:23:41.376Z,10.80
2022-10-02T02:25:45.175Z,10.20
2022-10-02T02:27:48.952Z,10.47
2022-10-02T02:29:51.838Z,10.60
2022-10-02T02:31:58.016Z,10.07
2022-10-02T02:34:01.553Z,10.90
2022-10-02T02:36:05.218Z,10.40
2022-10-02T02:38:07.868Z,10.40
2022-10-02T02:40:10.926Z,10.50
2022-10-02T02:42:16.791Z,10.30
2022-10-02T02:44:21.623Z,10.43
2022-10-02T02:46:24.455Z,10.50
2022-10-02T02:48:28.977Z,10.87
2022-10-02T02:50:32.208Z,10.40
2022-10-02T02:52:36.217Z,10.63
2022-10-02T02:54:38.990Z,10.17
2022-10-02T02:56:41.375Z,10.13
2022-10-02T02:58:44.679Z,9.17
2022-10-02T03:00:47.627Z,9.53
2022-10-02T03:02:50.550Z,10.33
2022-10-02T03:04:54.212Z,9.70
2022-10-02T03:06:57.229Z,9.40
2022-10-02T03:09:00.087Z,9.70
2022-10-02T03:11:06.210Z,9.00
2022-10-02T03:13:11.711Z,10.00
2022-10-02T03:15:16.814Z,9.90
2022-10-02T03:17:22.937Z,9.00
2022-10-02T03:19:29.184Z,9.00
2022-10-02T03:21:34.551Z,9.10
2022-10-02T03:23:38.017Z,9.87
2022-10-02T03:25:41.659Z,8.50
2022-10-02T03:27:45.267Z,8.60
2022-10-02T03:29:48.270Z,9.10
2022-10-02T03:31:50.703Z,9.97
2022-10-02T03:33:53.733Z,8.10
2022-10-02T03:35:56.194Z,9.60
2022-10-02T03:38:00.510Z,8.50
2022-10-02T03:40:04.209Z,8.83
2022-10-02T03:42:10.298Z,9.03
2022-10-02T03:44:12.702Z,8.60
2022-10-02T03:46:15.106Z,8.40
2022-10-02T03:48:17.813Z,8.73
2022-10-02T03:50:21.205Z,8.47
2022-10-02T03:52:24.103Z,7.60
2022-10-02T03:54:28.101Z,8.50
2022-10-02T03:56:32.605Z,8.00
2022-10-02T03:58:35.713Z,8.13
2022-10-02T04:00:38.887Z,7.30
2022-10-02T04:02:41.734Z,8.50
2022-10-02T04:04:45.763Z,8.47
2022-10-02T04:06:49.176Z,7.93
2022-10-02T04:08:52.431Z,8.10
2022-10-02T04:10:57.556Z,8.60
2022-10-02T04:13:03.306Z,7.43
2022-10-02T04:15:07.809Z,7.67
2022-10-02T04:17:11.447Z,7.83
2022-10-02T04:19:15.398Z,7.90
2022-10-02T04:21:21.171Z,7.37
2022-10-02T04:23:24.806Z,7.03
2022-10-02T04:25:27.549Z,8.03
2022-10-02T04:27:33.274Z,8.70
2022-10-02T04:29:37.533Z,7.57
2022-10-02T04:31:40.277Z,8.00
2022-10-02T04:33:42.693Z,7.33
2022-10-02T04:35:47.041Z,8.47
2022-10-02T04:37:53.045Z,8.07
2022-10-02T04:39:59.557Z,7.47
2022-10-02T04:42:05.958Z,7.13
2022-10-02T04:44:12.523Z,7.93
2022-10-02T04:46:19.682Z,7.20
2022-10-02T04:48:31.210Z,7.10
2022-10-02T04:50:37.311Z,7.90
2022-10-02T04:52:43.578Z,7.87
2022-10-02T04:54:53.214Z,6.97
2022-10-02T04:56:57.490Z,7.90
2022-10-02T04:59:04.641Z,7.40
2022-10-02T05:01:10.272Z,7.00
2022-10-02T05:03:17.198Z,7.20
2022-10-02T05:05:22.827Z,7.87
2022-10-02T05:07:31.936Z,7.47
2022-10-02T05:09:34.580Z,6.77
2022-10-02T05:11:42.790Z,7.30
2022-10-02T05:13:52.253Z,7.30
2022-10-02T05:15:59.065Z,7.87
2022-10-02T05:18:08.779Z,8.00
2022-10-02T05:20:16.758Z,7.53
2022-10-02T05:22:24.560Z,7.97
2022-10-02T05:24:35.650Z,7.00
2022-10-02T05:26:42.840Z,8.00
2022-10-02T05:28:50.039Z,7.63
2022-10-02T05:30:54.996Z,6.70
2022-10-02T05:33:01.918Z,7.00
2022-10-02T05:35:10.767Z,7.20
2022-10-02T05:37:17.968Z,7.10
2022-10-02T05:39:21.332Z,6.23
2022-10-02T05:41:24.841Z,7.57
2022-10-02T05:43:28.969Z,7.40
2022-10-02T05:45:32.222Z,7.13
2022-10-02T05:47:36.659Z,6.67
2022-10-02T05:49:40.992Z,7.47
2022-10-02T05:51:47.319Z,7.37
2022-10-02T05:53:52.593Z,7.37
2022-10-02T05:55:56.021Z,7.23
2022-10-02T05:57:59.263Z,7.60
2022-10-02T06:00:04.949Z,7.20
2022-10-02T06:02:09.961Z,6.40
2022-10-02T06:04:12.954Z,6.90
2022-10-02T06:06:16.265Z,6.73
2022-10-02T06:08:21.098Z,6.67
2022-10-02T06:10:24.901Z,6.67
2022-10-02T06:12:31.304Z,7.20
2022-10-02T06:14:35.210Z,6.87
2022-10-02T06:16:38.547Z,6.63
2022-10-02T06:18:42.234Z,6.27
2022-10-02T06:20:45.925Z,6.50
2022-10-02T06:22:49.064Z,6.40
2022-10-02T06:24:53.787Z,7.00
2022-10-02T06:26:57.017Z,6.77
2022-10-02T06:29:02.642Z,6.60
2022-10-02T06:31:06.061Z,6.60
2022-10-02T06:33:10.798Z,6.70
2022-10-02T06:35:13.988Z,7.00
2022-10-02T06:37:24.233Z,6.77
2022-10-02T06:39:32.335Z,7.07
2022-10-02T06:41:37.888Z,6.83
2022-10-02T06:43:43.532Z,6.97
2022-10-02T06:45:48.908Z,6.60
2022-10-02T06:47:58.486Z,6.60
2022-10-02T06:50:16.220Z,6.50
2022-10-02T06:52:20.297Z,6.60
2022-10-02T06:54:29.483Z,6.60
2022-10-02T06:56:37.866Z,6.87
2022-10-02T06:58:43.168Z,6.97
2022-10-02T07:00:48.264Z,6.30
2022-10-02T07:02:58.121Z,6.87
2022-10-02T07:05:07.977Z,6.63
2022-10-02T07:07:16.103Z,7.03
2022-10-02T07:09:27.701Z,7.27
2022-10-02T07:11:33.573Z,7.17
2022-10-02T07:13:43.904Z,6.97
2022-10-02T07:15:50.852Z,7.60
2022-10-02T07:17:57.275Z,7.10
2022-10-02T07:20:04.507Z,7.80
2022-10-02T07:22:32.457Z,8.17
2022-10-02T07:24:37.933Z,6.60
2022-10-02T07:26:43.751Z,7.20
2022-10-02T07:28:47.961Z,7.30
2022-10-02T07:30:52.442Z,6.80
2022-10-02T07:32:56.190Z,7.93
2022-10-02T07:35:00.947Z,7.20
2022-10-02T07:37:06.697Z,7.00
2022-10-02T07:39:12.444Z,7.30
2022-10-02T07:41:19.956Z,7.30
2022-10-02T07:43:26.237Z,7.27
2022-10-02T07:45:30.648Z,7.80
2022-10-02T07:47:41.434Z,6.90
2022-10-02T07:49:47.148Z,7.87
2022-10-02T07:51:51.467Z,8.43
2022-10-02T07:53:54.167Z,8.00
2022-10-02T07:55:57.325Z,7.77
2022-10-02T07:58:01.035Z,7.50
2022-10-02T08:00:08.242Z,7.67
2022-10-02T08:02:20.117Z,8.17
2022-10-02T08:04:26.801Z,7.33
2022-10-02T08:06:38.371Z,8.07
2022-10-02T08:08:49.884Z,8.00
2022-10-02T08:10:54.378Z,8.17
2022-10-02T08:13:02.998Z,8.30
2022-10-02T08:15:06.540Z,8.10
2022-10-02T08:17:18.029Z,8.17
2022-10-02T08:19:27.347Z,8.50
2022-10-02T08:21:30.051Z,8.63
2022-10-02T08:23:34.475Z,7.63
2022-10-02T08:25:38.170Z,9.03
2022-10-02T08:27:46.693Z,8.50
2022-10-02T08:29:49.770Z,8.20
2022-10-02T08:31:52.979Z,7.50
2022-10-02T08:33:56.174Z,8.10
2022-10-02T08:36:12.409Z,8.60
2022-10-02T08:38:20.156Z,8.03
2022-10-02T08:40:31.616Z,8.40
2022-10-02T08:42:45.356Z,8.23
2022-10-02T08:44:53.681Z,8.67
2022-10-02T08:47:06.061Z,8.30
2022-10-02T08:49:15.060Z,8.67
2022-10-02T08:51:24.331Z,8.23
2022-10-02T08:53:35.486Z,9.03
2022-10-02T08:55:44.008Z,9.10
2022-10-02T08:57:56.739Z,9.43
2022-10-02T09:00:06.580Z,8.53
2022-10-02T09:02:27.603Z,8.30
2022-10-02T09:04:41.912Z,8.00
2022-10-02T09:06:52.366Z,8.87
2022-10-02T09:08:59.373Z,8.23
2022-10-02T09:11:10.465Z,8.97
2022-10-02T09:13:19.546Z,8.93
2022-10-02T09:15:22.122Z,9.60
2022-10-02T09:17:32.237Z,9.00
2022-10-02T09:19:41.446Z,9.30
2022-10-02T09:21:49.570Z,8.33
2022-10-02T09:24:01.912Z,9.30
2022-10-02T09:26:05.256Z,10.30
2022-10-02T09:28:13.683Z,10.10
2022-10-02T09:30:17.782Z,11.10
2022-10-02T09:32:34.632Z,9.97
2022-10-02T09:34:43.644Z,10.20
2022-10-02T09:36:57.575Z,10.33
2022-10-02T09:39:19.047Z,10.43
2022-10-02T09:41:28.301Z,10.70
2022-10-02T09:43:37.424Z,10.43
2022-10-02T09:45:47.101Z,8.73
2022-10-02T09:48:05.191Z,10.37
2022-10-02T09:50:16.321Z,11.27
2022-10-02T09:52:29.583Z,9.73
2022-10-02T09:54:46.822Z,10.40
2022-10-02T09:57:02.631Z,9.13
2022-10-02T09:59:18.966Z,10.60
2022-10-02T10:01:26.563Z,9.60
2022-10-02T10:03:36.379Z,9.73
2022-10-02T10:05:44.003Z,10.17
2022-10-02T10:08:01.679Z,10.27
2022-10-02T10:10:08.122Z,9.60
2022-10-02T10:12:20.428Z,10.33
2022-10-02T10:14:33.780Z,9.97
2022-10-02T10:16:44.521Z,9.10
2022-10-02T10:18:51.896Z,9.30
2022-10-02T10:21:01.512Z,9.23
2022-10-02T10:23:15.382Z,9.70
2022-10-02T10:25:28.216Z,9.57
2022-10-02T10:27:33.992Z,9.70
2022-10-02T10:29:46.543Z,9.30
2022-10-02T10:32:01.311Z,9.50
2022-10-02T10:34:11.063Z,9.43
2022-10-02T10:36:32.386Z,9.07
2022-10-02T10:38:40.216Z,9.00
2022-10-02T10:40:44.192Z,8.93
2022-10-02T10:43:07.378Z,9.53
2022-10-02T10:45:19.871Z,9.97
2022-10-02T10:47:27.268Z,10.80
2022-10-02T10:49:37.882Z,10.43
2022-10-02T10:51:45.668Z,9.83
2022-10-02T10:53:52.923Z,8.90
2022-10-02T10:56:03.463Z,10.70
2022-10-02T10:58:14.891Z,10.00
2022-10-02T11:00:23.547Z,11.43
2022-10-02T11:02:37.814Z,10.00
2022-10-02T11:04:44.333Z,10.20
2022-10-02T11:06:52.127Z,9.03
2022-10-02T11:09:06.802Z,9.50
2022-10-02T11:11:19.523Z,10.10
2022-10-02T11:13:29.327Z,10.83
2022-10-02T11:15:39.081Z,9.57
2022-10-02T11:17:47.656Z,9.83
2022-10-02T11:19:53.876Z,10.20
2022-10-02T11:22:13.605Z,9.77
2022-10-02T11:24:19.551Z,9.27
2022-10-02T11:26:27.472Z,10.00
2022-10-02T11:28:58.775Z,10.67
2022-10-02T11:31:05.238Z,10.93
2022-10-02T11:33:19.155Z,11.73
2022-10-02T11:35:29.402Z,10.77
2022-10-02T11:37:37.755Z,11.57
2022-10-02T11:39:47.071Z,11.37
2022-10-02T11:41:53.616Z,11.60
2022-10-02T11:44:05.457Z,13.00
2022-10-02T11:46:16.037Z,12.63
2022-10-02T11:48:21.728Z,12.70
2022-10-02T11:50:29.422Z,12.77
2022-10-02T11:52:38.633Z,12.77
2022-10-02T11:54:45.509Z,13.27
2022-10-02T11:57:00.954Z,14.30
2022-10-02T11:59:07.782Z,13.93
2022-10-02T12:01:11.969Z,13.70
2022-10-02T12:03:38.757Z,13.50
2022-10-02T12:05:46.140Z,13.27
2022-10-02T12:07:55.041Z,11.80
2022-10-02T12:10:01.317Z,13.03
2022-10-02T12:12:07.550Z,13.30
2022-10-02T12:14:13.951Z,14.53
2022-10-02T12:16:19.979Z,14.70
2022-10-02T12:18:25.402Z,14.13
2022-10-02T12:20:44.015Z,15.40
2022-10-02T12:22:59.672Z,14.50
2022-10-02T12:25:15.241Z,14.20
2022-10-02T12:27:19.870Z,14.03
2022-10-02T12:29:25.187Z,15.40
2022-10-02T12:31:28.933Z,14.97
2022-10-02T12:33:34.624Z,14.07
2022-10-02T12:35:45.229Z,14.67
2022-10-02T12:37:50.800Z,15.27
2022-10-02T12:39:55.111Z,14.90
2022-10-02T12:42:04.836Z,13.67
2022-10-02T12:44:10.595Z,13.83
2022-10-02T12:46:19.454Z,13.77
2022-10-02T12:48:30.578Z,15.70
2022-10-02T12:50:38.461Z,13.70
2022-10-02T12:52:50.893Z,13.53
2022-10-02T12:55:02.811Z,14.57
2022-10-02T12:57:38.934Z,14.53
2022-10-02T12:59:47.460Z,14.50
2022-10-02T13:01:57.809Z,13.60
2022-10-02T13:04:18.063Z,13.63
2022-10-02T13:06:32.705Z,14.40
2022-10-02T13:08:41.524Z,14.30
2022-10-02T13:11:02.564Z,14.50
2022-10-02T13:13:10.635Z,14.17
2022-10-02T13:15:23.735Z,13.80
2022-10-02T13:17:27.920Z,13.87
2022-10-02T13:19:31.737Z,14.83
2022-10-02T13:21:37.640Z,14.17
2022-10-02T13:23:42.484Z,15.90
2022-10-02T13:25:49.055Z,14.90
2022-10-02T13:27:55.205Z,14.83
2022-10-02T13:30:02.473Z,14.47
2022-10-02T13:32:09.201Z,15.00
2022-10-02T13:34:16.606Z,15.30
2022-10-02T13:36:20.330Z,14.47
2022-10-02T13:38:34.420Z,15.50
2022-10-02T13:40:45.349Z,14.27
2022-10-02T13:42:51.872Z,15.00
2022-10-02T13:44:57.328Z,14.00
2022-10-02T13:47:05.208Z,13.90
2022-10-02T13:49:15.979Z,14.00
2022-10-02T13:51:20.911Z,15.17
2022-10-02T13:53:42.584Z,15.10
2022-10-02T13:55:47.376Z,14.90
2022-10-02T13:57:54.557Z,12.47
2022-10-02T14:00:01.063Z,13.93
2022-10-02T14:02:11.609Z,15.10
2022-10-02T14:04:27.340Z,14.03
2022-10-02T14:06:33.395Z,10.87
2022-10-02T14:08:42.327Z,13.70
2022-10-02T14:10:52.408Z,14.70
2022-10-02T14:12:59.888Z,13.60
2022-10-02T14:15:14.988Z,14.43
2022-10-02T14:17:21.186Z,13.77
2022-10-02T14:19:28.798Z,14.87
2022-10-02T14:21:33.297Z,13.23
2022-10-02T14:23:41.094Z,13.00
2022-10-02T14:25:47.390Z,14.43
2022-10-02T14:28:02.462Z,13.70
2022-10-02T14:30:05.697Z,13.83
2022-10-02T14:32:23.104Z,12.97
2022-10-02T14:34:34.637Z,13.30
2022-10-02T14:36:40.774Z,14.33
2022-10-02T14:38:46.080Z,14.23
2022-10-02T14:40:53.172Z,14.87
2022-10-02T18:21:43.041Z,19.00
2022-10-02T18:24:00.129Z,18.10
2022-10-02T18:26:05.658Z,18.87
2022-10-02T18:28:12.912Z,18.83
2022-10-02T18:30:17.060Z,19.57
2022-10-02T18:32:24.664Z,18.67
2022-10-02T18:34:31.843Z,18.30
2022-10-02T18:36:37.162Z,18.30
2022-10-02T18:38:46.407Z,18.77
2022-10-02T18:40:53.281Z,18.07
2022-10-02T18:43:06.687Z,18.00
2022-10-02T18:45:12.714Z,17.47
2022-10-02T18:47:17.847Z,17.70
2022-10-02T18:49:25.767Z,17.60
2022-10-02T18:51:32.770Z,17.20
2022-10-02T18:53:40.704Z,18.03
2022-10-02T18:55:53.865Z,18.00
2022-10-02T18:58:04.838Z,17.47
2022-10-02T19:00:16.956Z,16.90
2022-10-02T19:02:26.489Z,16.93
2022-10-02T19:04:37.579Z,18.43
2022-10-02T19:06:44.284Z,17.07
2022-10-02T19:08:55.691Z,17.27
2022-10-02T19:10:59.475Z,16.80
2022-10-02T19:13:04.460Z,17.03
2022-10-02T19:15:14.231Z,17.60
2022-10-02T19:17:17.862Z,17.60
2022-10-02T19:19:21.296Z,18.33
2022-10-02T19:21:23.802Z,16.63
2022-10-02T19:23:27.632Z,17.47
2022-10-02T19:25:30.007Z,16.63
2022-10-02T19:27:34.628Z,16.33
2022-10-02T19:29:38.015Z,17.20
2022-10-02T19:31:41.439Z,18.20
2022-10-02T19:33:45.957Z,16.77
2022-10-02T19:35:48.458Z,17.07
2022-10-02T19:37:51.274Z,18.23
2022-10-02T19:39:54.006Z,16.90
2022-10-02T19:41:56.625Z,17.90
2022-10-02T19:44:01.280Z,17.83
2022-10-02T19:46:04.370Z,16.10
2022-10-02T19:48:08.000Z,17.83
2022-10-02T19:50:18.954Z,17.80
2022-10-02T19:52:31.160Z,17.60
2022-10-02T19:54:34.179Z,17.00
2022-10-02T19:56:39.770Z,17.73
2022-10-02T19:58:42.736Z,16.40
2022-10-02T20:00:47.042Z,16.90
2022-10-02T20:02:50.209Z,16.67
2022-10-02T20:04:53.826Z,17.53
2022-10-02T20:06:56.661Z,17.47
2022-10-02T20:09:00.886Z,16.50
2022-10-02T20:11:05.145Z,16.20
2022-10-02T20:13:09.583Z,17.20
2022-10-02T20:15:12.893Z,17.40
2022-10-02T20:17:17.777Z,16.87
2022-10-02T20:19:22.387Z,17.17
2022-10-02T20:21:26.212Z,16.47
2022-10-02T20:23:29.587Z,15.83
2022-10-02T20:25:32.446Z,15.87
2022-10-02T20:27:37.893Z,16.97
2022-10-02T20:29:46.490Z,16.87
2022-10-02T20:31:53.048Z,16.87
2022-10-02T20:33:57.814Z,17.97
2022-10-02T20:36:03.154Z,16.97
2022-10-02T20:38:08.397Z,16.87
2022-10-02T20:40:13.736Z,16.37
2022-10-02T20:42:17.309Z,16.70
2022-10-02T20:44:20.619Z,15.83
2022-10-02T20:46:30.638Z,16.10
2022-10-02T20:49:03.050Z,15.40
2022-10-02T20:51:05.795Z,15.97
2022-10-02T20:53:17.005Z,16.73
2022-10-02T20:55:19.777Z,16.23
2022-10-02T20:57:56.432Z,16.00
2022-10-02T21:00:03.501Z,16.73
2022-10-02T21:02:10.607Z,15.20
2022-10-02T21:04:28.234Z,17.23
2022-10-02T21:06:36.839Z,16.00
2022-10-02T21:08:44.067Z,15.50
2022-10-02T21:10:50.995Z,14.93
2022-10-02T21:12:56.978Z,14.77
2022-10-02T21:15:05.977Z,15.40
2022-10-02T21:17:15.132Z,15.97
2022-10-02T21:19:28.221Z,15.63
2022-10-02T21:21:37.552Z,15.93
2022-10-02T21:23:44.198Z,13.63
2022-10-02T21:25:53.682Z,15.70
2022-10-02T21:28:02.199Z,15.50
2022-10-02T21:30:10.949Z,15.37
2022-10-02T21:32:20.769Z,15.90
2022-10-02T21:34:31.368Z,14.50
2022-10-02T21:36:35.497Z,15.83
2022-10-02T21:38:46.577Z,15.40
2022-10-02T21:41:04.176Z,15.73
2022-10-02T21:43:18.867Z,15.40
2022-10-02T21:45:37.630Z,15.57
2022-10-02T21:47:42.387Z,13.53
2022-10-02T21:49:50.323Z,15.20
2022-10-02T21:51:59.615Z,14.60
2022-10-02T21:54:14.743Z,15.10
2022-10-02T21:56:31.982Z,14.70
2022-10-02T21:58:48.443Z,15.40
2022-10-02T22:00:56.335Z,14.70
2022-10-02T22:03:06.298Z,14.10
2022-10-02T22:05:21.058Z,15.03
2022-10-02T22:07:23.822Z,14.73
2022-10-02T22:09:33.884Z,14.57
2022-10-02T22:11:38.809Z,14.47
2022-10-02T22:13:43.177Z,13.77
2022-10-02T22:15:50.566Z,14.30
2022-10-02T22:17:56.238Z,14.27
2022-10-02T22:20:05.255Z,14.57
2022-10-02T22:22:11.056Z,14.10
2022-10-02T22:24:17.782Z,15.30
2022-10-02T22:26:29.531Z,13.27
2022-10-02T22:28:35.668Z,13.17
2022-10-02T22:30:39.904Z,13.67
2022-10-02T22:32:58.249Z,13.67
2022-10-02T22:35:00.819Z,13.40
2022-10-02T22:37:11.294Z,14.33
2022-10-02T22:39:15.160Z,14.30
2022-10-02T22:41:20.507Z,14.30
2022-10-02T22:43:28.014Z,14.17
2022-10-02T22:45:32.238Z,14.10
2022-10-02T22:47:35.745Z,13.07
2022-10-02T22:49:39.137Z,13.70
2022-10-02T22:51:42.727Z,13.70
2022-10-02T22:53:46.338Z,14.30
2022-10-02T22:55:50.711Z,13.60
2022-10-02T22:57:54.532Z,14.13
2022-10-02T22:59:59.100Z,14.40
2022-10-02T23:02:05.893Z,13.47
2022-10-02T23:04:09.926Z,13.53
2022-10-02T23:06:14.843Z,14.43
2022-10-02T23:08:19.838Z,13.23
2022-10-02T23:10:25.723Z,12.60
2022-10-02T23:12:33.229Z,13.20
2022-10-02T23:14:39.923Z,12.50
2022-10-02T23:16:44.850Z,12.97
2022-10-02T23:18:49.777Z,12.20
2022-10-02T23:20:53.915Z,14.50
2022-10-02T23:22:57.420Z,13.03
2022-10-02T23:25:01.514Z,13.40
2022-10-02T23:27:06.527Z,13.57
2022-10-02T23:29:15.618Z,13.00
2022-10-02T23:31:18.915Z,14.23
2022-10-02T23:33:23.561Z,13.97
2022-10-02T23:35:27.698Z,13.07
2022-10-02T23:37:33.217Z,12.40
2022-10-02T23:39:36.452Z,13.50
2022-10-02T23:41:47.417Z,13.43
2022-10-02T23:43:51.123Z,12.67
2022-10-02T23:45:55.914Z,12.77
2022-10-02T23:47:59.021Z,12.67
2022-10-02T23:50:02.725Z,12.97
2022-10-02T23:52:12.678Z,12.43
2022-10-02T23:54:20.043Z,12.93
2022-10-02T23:56:33.250Z,13.10
2022-10-02T23:58:39.506Z,12.03
